首页
METAR-TAF:

METAR-TAF

机场 :

汶萊國際機場

文莱, 文莱

纬度: 04-56N, 经度: 114-56E, 海拔: 22米

当前天气观测

该预报发布于30分钟前的17:30 UTC
风速1节,风向
温度 26°C
湿度 94%
气压 1010 hPa
能见度10公里或以上
少量云层高于1400英尺
少量云层高于1500英尺, 积雨云.
多云层高于14000英尺

METAR: WBSB 231730Z 36001KT 9999 FEW014 FEW015CB BKN140 26/25 Q1010 NOSIG

时间: 02:00 (18:00 UTC)

预报

该预报发布于1小时和0分钟前的17:00 UTC
预报有效从23日的 18点(UTC)到 25日的 00点(UTC)
风速2节,风向东南
能见度10公里或以上
少量云层高于1500英尺
成为
从 24日的 03点(UTC)到 24日的 05点(UTC)
风速10节,风向
散云层高于1500英尺
少量云层高于1600英尺, 积雨云.
短暂存在
从 24日的 06点(UTC)到 24日的 10点(UTC)
能見度: 4000
雷暴, 雨
短暂存在
从 24日的 10点(UTC)到 24日的 14点(UTC)
能見度: 8000
少量云层高于500英尺
多云层高于15000英尺
小雨

TAF: WBSB 231700Z 2318/2500 14002KT 9999 FEW015 BECMG 2403/2405 35010KT SCT015 FEW016CB TEMPO 2406/2410 4000 TSRA TEMPO 2410/2414 8000 -RA FEW005 BKN150

超过4000个机场的气象观测和天气预报(METAR&TAF报告)。

可查询的气象台以黄色和红色小点在地图上表示。

将鼠标移到小点上方,可查看气象台名称。

然后点击查看天气观测和预报。

如需切换地图:点击带黑十字的绿色按钮放大地图;点击带横线的绿色按钮缩小地图;或者点击绿色箭头查看邻近地区的地图。


METAR-TAF: